logo
Search for airport 
image banner adimage banner adimage banner ad
image banner ad

SCAT - Desierto De Atacama

Located in Caldera, Chile

ICAO - SCAT, IATA - CPO

Data provided by Airmate  

General information

Coordinates: S27°15'42" W70°46'45"
Elevation is 670 feet MSL.
Magnetic variation is -2° East
View others Airports in Atacama

Operational data

Special qualification required
Current time UTC:
Current local time:
Weather
TAF: TAF SCAT 251630Z 2518/2618 34008KT CAVOK TX16/2518Z TN08/2610Z BECMG 2520/2522 27008KT BECMG 2600/2602 02004KT OVC003 TEMPO 2607/2610 3000 BR OVC002 BECMG 2610/2612 BKN008 BECMG 2614/2616 27008KT CAVOK
View NOTAMs / SUP AIP / TFR affecting this airport [VIEW]
Communications frequencies: [VIEW]

Runways:

RWY identifierQFULength (ft)Width (ft)SurfaceLDA (ft)
17175°7218148ASP
35355°7218148ASP

Airport contact information

Address: Caldera Chile

Satellite view of SCAT